sensor_id;sensor_type;location;lat;lon;timestamp;P1;durP1;ratioP1;P2;durP2;ratioP2
69185;SDS011;56298;49.246;9.410;2024-01-15T00:01:26;61.87;;;33.37;;
69185;SDS011;56298;49.246;9.410;2024-01-15T00:03:51;59.90;;;33.53;;
69185;SDS011;56298;49.246;9.410;2024-01-15T00:06:17;61.80;;;32.77;;
69185;SDS011;56298;49.246;9.410;2024-01-15T00:08:42;59.20;;;33.30;;
69185;SDS011;56298;49.246;9.410;2024-01-15T00:11:07;61.20;;;33.43;;
69185;SDS011;56298;49.246;9.410;2024-01-15T00:13:32;59.83;;;33.55;;
69185;SDS011;56298;49.246;9.410;2024-01-15T00:15:58;59.67;;;32.87;;
69185;SDS011;56298;49.246;9.410;2024-01-15T00:18:23;65.90;;;33.73;;
69185;SDS011;56298;49.246;9.410;2024-01-15T00:20:48;60.97;;;34.47;;
69185;SDS011;56298;49.246;9.410;2024-01-15T00:23:13;60.67;;;33.63;;
69185;SDS011;56298;49.246;9.410;2024-01-15T00:25:40;60.80;;;32.93;;
69185;SDS011;56298;49.246;9.410;2024-01-15T00:28:06;59.05;;;32.92;;
69185;SDS011;56298;49.246;9.410;2024-01-15T00:30:31;63.90;;;34.83;;
69185;SDS011;56298;49.246;9.410;2024-01-15T00:32:56;62.23;;;34.53;;
69185;SDS011;56298;49.246;9.410;2024-01-15T00:35:21;56.17;;;31.57;;
69185;SDS011;56298;49.246;9.410;2024-01-15T00:37:47;59.07;;;33.37;;
69185;SDS011;56298;49.246;9.410;2024-01-15T00:40:12;56.63;;;32.23;;
69185;SDS011;56298;49.246;9.410;2024-01-15T00:42:38;55.83;;;33.33;;
69185;SDS011;56298;49.246;9.410;2024-01-15T00:45:03;62.93;;;31.83;;
69185;SDS011;56298;49.246;9.410;2024-01-15T00:47:30;59.13;;;33.67;;
69185;SDS011;56298;49.246;9.410;2024-01-15T00:49:55;60.63;;;32.53;;
69185;SDS011;56298;49.246;9.410;2024-01-15T00:52:20;63.43;;;34.73;;
69185;SDS011;56298;49.246;9.410;2024-01-15T00:54:45;63.20;;;34.10;;
69185;SDS011;56298;49.246;9.410;2024-01-15T00:57:11;59.67;;;33.50;;
69185;SDS011;56298;49.246;9.410;2024-01-15T00:59:36;61.27;;;33.97;;
69185;SDS011;56298;49.246;9.410;2024-01-15T01:02:01;59.20;;;33.90;;
69185;SDS011;56298;49.246;9.410;2024-01-15T01:04:27;58.95;;;32.38;;
69185;SDS011;56298;49.246;9.410;2024-01-15T01:06:52;58.30;;;32.30;;
69185;SDS011;56298;49.246;9.410;2024-01-15T01:09:17;59.37;;;33.07;;
69185;SDS011;56298;49.246;9.410;2024-01-15T01:11:43;65.73;;;33.50;;
69185;SDS011;56298;49.246;9.410;2024-01-15T01:14:08;55.07;;;30.30;;
69185;SDS011;56298;49.246;9.410;2024-01-15T01:16:33;55.30;;;30.77;;
69185;SDS011;56298;49.246;9.410;2024-01-15T01:19:03;51.40;;;28.63;;
69185;SDS011;56298;49.246;9.410;2024-01-15T01:21:30;54.65;;;31.38;;
69185;SDS011;56298;49.246;9.410;2024-01-15T01:23:55;56.47;;;30.87;;
69185;SDS011;56298;49.246;9.410;2024-01-15T01:26:20;54.77;;;30.93;;
69185;SDS011;56298;49.246;9.410;2024-01-15T01:28:45;53.97;;;29.80;;
69185;SDS011;56298;49.246;9.410;2024-01-15T01:31:11;56.00;;;28.87;;
69185;SDS011;56298;49.246;9.410;2024-01-15T01:33:37;55.60;;;31.07;;
69185;SDS011;56298;49.246;9.410;2024-01-15T01:36:06;55.30;;;31.10;;
69185;SDS011;56298;49.246;9.410;2024-01-15T01:38:32;51.50;;;29.30;;
69185;SDS011;56298;49.246;9.410;2024-01-15T01:40:58;51.00;;;28.90;;
69185;SDS011;56298;49.246;9.410;2024-01-15T01:43:23;50.00;;;28.93;;
69185;SDS011;56298;49.246;9.410;2024-01-15T01:45:48;53.27;;;29.77;;
69185;SDS011;56298;49.246;9.410;2024-01-15T01:48:13;55.50;;;30.03;;
69185;SDS011;56298;49.246;9.410;2024-01-15T01:50:39;48.93;;;28.07;;
69185;SDS011;56298;49.246;9.410;2024-01-15T01:53:04;53.95;;;30.02;;
69185;SDS011;56298;49.246;9.410;2024-01-15T01:55:29;55.20;;;30.20;;
69185;SDS011;56298;49.246;9.410;2024-01-15T01:57:56;53.83;;;29.80;;
69185;SDS011;56298;49.246;9.410;2024-01-15T02:00:21;56.73;;;29.77;;
69185;SDS011;56298;49.246;9.410;2024-01-15T02:02:47;52.60;;;29.63;;
69185;SDS011;56298;49.246;9.410;2024-01-15T02:05:13;52.30;;;29.87;;
69185;SDS011;56298;49.246;9.410;2024-01-15T02:07:39;52.38;;;30.58;;
69185;SDS011;56298;49.246;9.410;2024-01-15T02:10:06;53.57;;;30.53;;
69185;SDS011;56298;49.246;9.410;2024-01-15T02:12:31;55.22;;;29.13;;
69185;SDS011;56298;49.246;9.410;2024-01-15T02:14:57;52.10;;;27.83;;
69185;SDS011;56298;49.246;9.410;2024-01-15T02:17:22;51.90;;;29.57;;
69185;SDS011;56298;49.246;9.410;2024-01-15T02:19:47;51.30;;;29.13;;
69185;SDS011;56298;49.246;9.410;2024-01-15T02:22:13;47.40;;;27.37;;
69185;SDS011;56298;49.246;9.410;2024-01-15T02:24:38;46.30;;;27.33;;
69185;SDS011;56298;49.246;9.410;2024-01-15T02:27:03;47.10;;;29.97;;
69185;SDS011;56298;49.246;9.410;2024-01-15T02:29:29;45.07;;;26.63;;
69185;SDS011;56298;49.246;9.410;2024-01-15T02:31:54;44.23;;;27.63;;
69185;SDS011;56298;49.246;9.410;2024-01-15T02:34:19;47.00;;;27.90;;
69185;SDS011;56298;49.246;9.410;2024-01-15T02:36:44;44.93;;;27.87;;
69185;SDS011;56298;49.246;9.410;2024-01-15T02:39:10;43.03;;;27.97;;
69185;SDS011;56298;49.246;9.410;2024-01-15T02:41:35;40.07;;;24.90;;
69185;SDS011;56298;49.246;9.410;2024-01-15T02:44:00;47.07;;;26.93;;
69185;SDS011;56298;49.246;9.410;2024-01-15T02:46:25;41.57;;;25.23;;
69185;SDS011;56298;49.246;9.410;2024-01-15T02:48:51;44.20;;;25.60;;
69185;SDS011;56298;49.246;9.410;2024-01-15T02:51:16;44.60;;;27.00;;
69185;SDS011;56298;49.246;9.410;2024-01-15T02:53:41;40.57;;;25.13;;
69185;SDS011;56298;49.246;9.410;2024-01-15T02:56:07;43.10;;;25.53;;
69185;SDS011;56298;49.246;9.410;2024-01-15T02:58:32;42.50;;;25.70;;
69185;SDS011;56298;49.246;9.410;2024-01-15T03:00:57;42.70;;;25.97;;
69185;SDS011;56298;49.246;9.410;2024-01-15T03:03:23;44.07;;;26.63;;
69185;SDS011;56298;49.246;9.410;2024-01-15T03:05:48;41.75;;;25.88;;
69185;SDS011;56298;49.246;9.410;2024-01-15T03:08:13;45.13;;;26.73;;
69185;SDS011;56298;49.246;9.410;2024-01-15T03:10:39;41.40;;;25.90;;
69185;SDS011;56298;49.246;9.410;2024-01-15T03:13:04;41.53;;;24.47;;
69185;SDS011;56298;49.246;9.410;2024-01-15T03:15:29;40.77;;;25.93;;
69185;SDS011;56298;49.246;9.410;2024-01-15T03:17:54;42.90;;;25.30;;
69185;SDS011;56298;49.246;9.410;2024-01-15T03:20:19;40.43;;;26.40;;
69185;SDS011;56298;49.246;9.410;2024-01-15T03:22:45;41.13;;;25.83;;
69185;SDS011;56298;49.246;9.410;2024-01-15T03:25:10;41.83;;;24.10;;
69185;SDS011;56298;49.246;9.410;2024-01-15T03:27:35;42.23;;;26.57;;
69185;SDS011;56298;49.246;9.410;2024-01-15T03:30:00;38.67;;;26.13;;
69185;SDS011;56298;49.246;9.410;2024-01-15T03:32:27;39.78;;;23.77;;
69185;SDS011;56298;49.246;9.410;2024-01-15T03:34:52;38.40;;;24.23;;
69185;SDS011;56298;49.246;9.410;2024-01-15T03:37:17;41.00;;;26.10;;
69185;SDS011;56298;49.246;9.410;2024-01-15T03:39:43;42.83;;;25.63;;
69185;SDS011;56298;49.246;9.410;2024-01-15T03:42:08;39.23;;;25.37;;
69185;SDS011;56298;49.246;9.410;2024-01-15T03:44:33;40.00;;;24.30;;
69185;SDS011;56298;49.246;9.410;2024-01-15T03:46:59;40.27;;;25.90;;
69185;SDS011;56298;49.246;9.410;2024-01-15T03:49:24;43.37;;;25.87;;
69185;SDS011;56298;49.246;9.410;2024-01-15T03:51:49;37.27;;;24.47;;
69185;SDS011;56298;49.246;9.410;2024-01-15T03:54:14;41.53;;;24.90;;
69185;SDS011;56298;49.246;9.410;2024-01-15T03:56:40;42.10;;;24.23;;
69185;SDS011;56298;49.246;9.410;2024-01-15T03:59:05;41.40;;;26.13;;
69185;SDS011;56298;49.246;9.410;2024-01-15T04:01:30;42.60;;;26.60;;
69185;SDS011;56298;49.246;9.410;2024-01-15T04:03:55;46.50;;;27.30;;
69185;SDS011;56298;49.246;9.410;2024-01-15T04:06:21;45.03;;;26.90;;
69185;SDS011;56298;49.246;9.410;2024-01-15T04:08:46;43.23;;;27.40;;
69185;SDS011;56298;49.246;9.410;2024-01-15T04:11:11;43.60;;;27.57;;
69185;SDS011;56298;49.246;9.410;2024-01-15T04:13:36;46.03;;;28.27;;
69185;SDS011;56298;49.246;9.410;2024-01-15T04:16:02;44.90;;;27.30;;
69185;SDS011;56298;49.246;9.410;2024-01-15T04:18:28;49.55;;;28.77;;
69185;SDS011;56298;49.246;9.410;2024-01-15T04:20:53;46.20;;;27.30;;
69185;SDS011;56298;49.246;9.410;2024-01-15T04:23:18;46.00;;;27.07;;
69185;SDS011;56298;49.246;9.410;2024-01-15T04:25:44;47.87;;;27.53;;
69185;SDS011;56298;49.246;9.410;2024-01-15T04:28:10;45.70;;;26.48;;
69185;SDS011;56298;49.246;9.410;2024-01-15T04:30:36;49.93;;;28.80;;
69185;SDS011;56298;49.246;9.410;2024-01-15T04:33:01;46.13;;;28.40;;
69185;SDS011;56298;49.246;9.410;2024-01-15T04:35:26;45.43;;;27.30;;
69185;SDS011;56298;49.246;9.410;2024-01-15T04:37:51;47.60;;;29.93;;
69185;SDS011;56298;49.246;9.410;2024-01-15T04:40:17;45.73;;;26.97;;
69185;SDS011;56298;49.246;9.410;2024-01-15T04:42:42;49.77;;;29.27;;
69185;SDS011;56298;49.246;9.410;2024-01-15T04:45:08;47.67;;;27.93;;
69185;SDS011;56298;49.246;9.410;2024-01-15T04:47:33;44.53;;;27.65;;
69185;SDS011;56298;49.246;9.410;2024-01-15T04:49:58;45.13;;;27.80;;
69185;SDS011;56298;49.246;9.410;2024-01-15T04:52:24;47.17;;;28.40;;
69185;SDS011;56298;49.246;9.410;2024-01-15T04:54:49;44.43;;;27.63;;
69185;SDS011;56298;49.246;9.410;2024-01-15T04:57:15;48.97;;;29.23;;
69185;SDS011;56298;49.246;9.410;2024-01-15T04:59:40;44.30;;;27.70;;
69185;SDS011;56298;49.246;9.410;2024-01-15T05:02:05;47.77;;;29.40;;
69185;SDS011;56298;49.246;9.410;2024-01-15T05:04:30;52.73;;;31.87;;
69185;SDS011;56298;49.246;9.410;2024-01-15T05:06:56;47.43;;;29.07;;
69185;SDS011;56298;49.246;9.410;2024-01-15T05:09:21;46.83;;;29.67;;
69185;SDS011;56298;49.246;9.410;2024-01-15T05:11:46;45.30;;;29.37;;
69185;SDS011;56298;49.246;9.410;2024-01-15T05:14:11;54.17;;;31.50;;
69185;SDS011;56298;49.246;9.410;2024-01-15T05:16:46;62.27;;;36.53;;
69185;SDS011;56298;49.246;9.410;2024-01-15T05:19:12;81.78;;;43.50;;
69185;SDS011;56298;49.246;9.410;2024-01-15T05:21:37;48.77;;;29.87;;
69185;SDS011;56298;49.246;9.410;2024-01-15T05:24:03;123.70;;;56.03;;
69185;SDS011;56298;49.246;9.410;2024-01-15T05:26:28;56.77;;;32.90;;
69185;SDS011;56298;49.246;9.410;2024-01-15T05:28:53;48.40;;;29.20;;
69185;SDS011;56298;49.246;9.410;2024-01-15T05:31:18;47.83;;;28.70;;
69185;SDS011;56298;49.246;9.410;2024-01-15T05:33:44;46.83;;;28.83;;
69185;SDS011;56298;49.246;9.410;2024-01-15T05:36:09;54.40;;;32.63;;
69185;SDS011;56298;49.246;9.410;2024-01-15T05:38:35;50.40;;;30.57;;
69185;SDS011;56298;49.246;9.410;2024-01-15T05:41:00;49.20;;;29.07;;
69185;SDS011;56298;49.246;9.410;2024-01-15T05:43:25;48.43;;;30.43;;
69185;SDS011;56298;49.246;9.410;2024-01-15T05:45:50;48.90;;;30.50;;
69185;SDS011;56298;49.246;9.410;2024-01-15T05:48:16;42.50;;;26.73;;
69185;SDS011;56298;49.246;9.410;2024-01-15T05:50:41;43.40;;;28.37;;
69185;SDS011;56298;49.246;9.410;2024-01-15T05:53:06;40.60;;;26.70;;
69185;SDS011;56298;49.246;9.410;2024-01-15T05:55:31;43.77;;;27.30;;
69185;SDS011;56298;49.246;9.410;2024-01-15T05:57:57;47.27;;;27.80;;
69185;SDS011;56298;49.246;9.410;2024-01-15T06:00:22;72.30;;;39.50;;
69185;SDS011;56298;49.246;9.410;2024-01-15T06:02:47;53.03;;;30.93;;
69185;SDS011;56298;49.246;9.410;2024-01-15T06:05:12;71.63;;;39.90;;
69185;SDS011;56298;49.246;9.410;2024-01-15T06:07:38;63.13;;;36.90;;
69185;SDS011;56298;49.246;9.410;2024-01-15T06:10:03;45.57;;;28.83;;
69185;SDS011;56298;49.246;9.410;2024-01-15T06:12:29;40.15;;;25.50;;
69185;SDS011;56298;49.246;9.410;2024-01-15T06:14:55;40.93;;;25.87;;
69185;SDS011;56298;49.246;9.410;2024-01-15T06:17:20;41.53;;;27.57;;
69185;SDS011;56298;49.246;9.410;2024-01-15T06:19:45;43.03;;;25.93;;
69185;SDS011;56298;49.246;9.410;2024-01-15T06:22:11;42.77;;;29.37;;
69185;SDS011;56298;49.246;9.410;2024-01-15T06:24:36;43.27;;;26.63;;
69185;SDS011;56298;49.246;9.410;2024-01-15T06:27:01;39.63;;;25.20;;
69185;SDS011;56298;49.246;9.410;2024-01-15T06:29:27;40.33;;;25.73;;
69185;SDS011;56298;49.246;9.410;2024-01-15T06:31:53;40.70;;;25.65;;
69185;SDS011;56298;49.246;9.410;2024-01-15T06:34:18;37.83;;;23.17;;
69185;SDS011;56298;49.246;9.410;2024-01-15T06:36:43;38.88;;;25.23;;
69185;SDS011;56298;49.246;9.410;2024-01-15T06:39:09;43.40;;;25.83;;
69185;SDS011;56298;49.246;9.410;2024-01-15T06:41:35;42.88;;;25.92;;
69185;SDS011;56298;49.246;9.410;2024-01-15T06:44:00;43.00;;;28.47;;
69185;SDS011;56298;49.246;9.410;2024-01-15T06:46:26;42.27;;;25.33;;
69185;SDS011;56298;49.246;9.410;2024-01-15T06:48:51;40.17;;;25.43;;
69185;SDS011;56298;49.246;9.410;2024-01-15T06:51:16;40.23;;;25.33;;
69185;SDS011;56298;49.246;9.410;2024-01-15T06:53:41;38.53;;;25.73;;
69185;SDS011;56298;49.246;9.410;2024-01-15T06:56:07;37.30;;;24.20;;
69185;SDS011;56298;49.246;9.410;2024-01-15T06:58:33;40.72;;;27.60;;
69185;SDS011;56298;49.246;9.410;2024-01-15T07:00:58;36.33;;;25.37;;
69185;SDS011;56298;49.246;9.410;2024-01-15T07:03:23;35.53;;;23.63;;
69185;SDS011;56298;49.246;9.410;2024-01-15T07:05:49;35.77;;;23.93;;
69185;SDS011;56298;49.246;9.410;2024-01-15T07:08:14;38.87;;;25.67;;
69185;SDS011;56298;49.246;9.410;2024-01-15T07:10:39;38.07;;;24.20;;
69185;SDS011;56298;49.246;9.410;2024-01-15T07:13:05;37.90;;;25.03;;
69185;SDS011;56298;49.246;9.410;2024-01-15T07:15:33;37.25;;;25.40;;
69185;SDS011;56298;49.246;9.410;2024-01-15T07:17:58;36.57;;;26.13;;
69185;SDS011;56298;49.246;9.410;2024-01-15T07:20:23;37.97;;;25.77;;
69185;SDS011;56298;49.246;9.410;2024-01-15T07:22:49;37.33;;;25.27;;
69185;SDS011;56298;49.246;9.410;2024-01-15T07:25:15;37.87;;;27.00;;
69185;SDS011;56298;49.246;9.410;2024-01-15T07:27:41;35.95;;;25.17;;
69185;SDS011;56298;49.246;9.410;2024-01-15T07:30:09;35.45;;;24.55;;
69185;SDS011;56298;49.246;9.410;2024-01-15T07:32:34;35.60;;;24.23;;
69185;SDS011;56298;49.246;9.410;2024-01-15T07:35:00;35.70;;;24.23;;
69185;SDS011;56298;49.246;9.410;2024-01-15T07:37:25;38.33;;;24.57;;
69185;SDS011;56298;49.246;9.410;2024-01-15T07:39:50;40.00;;;25.87;;
69185;SDS011;56298;49.246;9.410;2024-01-15T07:42:16;41.75;;;26.83;;
69185;SDS011;56298;49.246;9.410;2024-01-15T07:44:41;39.93;;;25.67;;
69185;SDS011;56298;49.246;9.410;2024-01-15T07:47:06;40.53;;;25.40;;
69185;SDS011;56298;49.246;9.410;2024-01-15T07:49:33;38.78;;;26.65;;
69185;SDS011;56298;49.246;9.410;2024-01-15T07:51:59;41.05;;;26.83;;
69185;SDS011;56298;49.246;9.410;2024-01-15T07:54:24;39.90;;;25.47;;
69185;SDS011;56298;49.246;9.410;2024-01-15T07:56:55;51.83;;;30.10;;
69185;SDS011;56298;49.246;9.410;2024-01-15T07:59:22;40.50;;;25.52;;
69185;SDS011;56298;49.246;9.410;2024-01-15T08:01:47;43.93;;;27.83;;
69185;SDS011;56298;49.246;9.410;2024-01-15T08:04:13;42.07;;;26.50;;
69185;SDS011;56298;49.246;9.410;2024-01-15T08:06:38;65.33;;;38.20;;
69185;SDS011;56298;49.246;9.410;2024-01-15T08:09:03;59.57;;;34.57;;
69185;SDS011;56298;49.246;9.410;2024-01-15T08:11:29;52.03;;;31.53;;
69185;SDS011;56298;49.246;9.410;2024-01-15T08:13:55;50.78;;;30.10;;
69185;SDS011;56298;49.246;9.410;2024-01-15T08:16:20;42.35;;;28.02;;
69185;SDS011;56298;49.246;9.410;2024-01-15T08:18:45;49.70;;;29.90;;
69185;SDS011;56298;49.246;9.410;2024-01-15T08:21:11;62.78;;;37.75;;
69185;SDS011;56298;49.246;9.410;2024-01-15T08:23:37;58.00;;;35.20;;
69185;SDS011;56298;49.246;9.410;2024-01-15T08:26:02;44.67;;;28.57;;
69185;SDS011;56298;49.246;9.410;2024-01-15T08:28:27;47.10;;;31.27;;
69185;SDS011;56298;49.246;9.410;2024-01-15T08:30:52;51.07;;;30.77;;
69185;SDS011;56298;49.246;9.410;2024-01-15T08:33:18;48.47;;;30.50;;
69185;SDS011;56298;49.246;9.410;2024-01-15T08:35:43;42.50;;;29.37;;
69185;SDS011;56298;49.246;9.410;2024-01-15T08:38:08;64.40;;;36.27;;
69185;SDS011;56298;49.246;9.410;2024-01-15T08:40:33;41.88;;;27.25;;
69185;SDS011;56298;49.246;9.410;2024-01-15T08:42:59;46.67;;;29.50;;
69185;SDS011;56298;49.246;9.410;2024-01-15T08:45:24;39.47;;;25.43;;
69185;SDS011;56298;49.246;9.410;2024-01-15T08:47:49;42.20;;;27.37;;
69185;SDS011;56298;49.246;9.410;2024-01-15T08:50:14;41.50;;;28.00;;
69185;SDS011;56298;49.246;9.410;2024-01-15T08:52:40;45.57;;;27.83;;
69185;SDS011;56298;49.246;9.410;2024-01-15T08:55:05;40.73;;;24.73;;
69185;SDS011;56298;49.246;9.410;2024-01-15T08:57:32;41.35;;;26.60;;
69185;SDS011;56298;49.246;9.410;2024-01-15T08:59:57;40.87;;;26.30;;
69185;SDS011;56298;49.246;9.410;2024-01-15T09:02:24;46.03;;;29.60;;
69185;SDS011;56298;49.246;9.410;2024-01-15T09:04:49;46.47;;;29.63;;
69185;SDS011;56298;49.246;9.410;2024-01-15T09:07:14;47.20;;;29.00;;
69185;SDS011;56298;49.246;9.410;2024-01-15T09:09:39;44.77;;;28.07;;
69185;SDS011;56298;49.246;9.410;2024-01-15T09:12:07;47.55;;;29.45;;
69185;SDS011;56298;49.246;9.410;2024-01-15T09:14:32;53.43;;;32.00;;
69185;SDS011;56298;49.246;9.410;2024-01-15T09:16:59;48.40;;;29.55;;
69185;SDS011;56298;49.246;9.410;2024-01-15T09:19:24;47.17;;;29.57;;
69185;SDS011;56298;49.246;9.410;2024-01-15T09:21:50;49.20;;;30.10;;
69185;SDS011;56298;49.246;9.410;2024-01-15T09:24:15;70.33;;;44.40;;
69185;SDS011;56298;49.246;9.410;2024-01-15T09:26:40;52.80;;;29.63;;
69185;SDS011;56298;49.246;9.410;2024-01-15T09:29:05;44.53;;;27.77;;
69185;SDS011;56298;49.246;9.410;2024-01-15T09:31:31;43.77;;;28.07;;
69185;SDS011;56298;49.246;9.410;2024-01-15T09:33:56;47.83;;;30.00;;
69185;SDS011;56298;49.246;9.410;2024-01-15T09:36:22;49.60;;;29.70;;
69185;SDS011;56298;49.246;9.410;2024-01-15T09:38:48;44.33;;;28.27;;
69185;SDS011;56298;49.246;9.410;2024-01-15T09:41:13;50.83;;;27.90;;
69185;SDS011;56298;49.246;9.410;2024-01-15T09:43:40;41.73;;;23.33;;
69185;SDS011;56298;49.246;9.410;2024-01-15T09:46:05;55.57;;;30.63;;
69185;SDS011;56298;49.246;9.410;2024-01-15T09:48:30;43.27;;;24.47;;
69185;SDS011;56298;49.246;9.410;2024-01-15T09:50:58;50.65;;;27.30;;
69185;SDS011;56298;49.246;9.410;2024-01-15T09:53:26;38.17;;;20.43;;
69185;SDS011;56298;49.246;9.410;2024-01-15T09:55:51;54.43;;;29.67;;
69185;SDS011;56298;49.246;9.410;2024-01-15T09:58:18;47.83;;;24.77;;
69185;SDS011;56298;49.246;9.410;2024-01-15T10:00:43;38.23;;;17.10;;
69185;SDS011;56298;49.246;9.410;2024-01-15T10:03:09;33.47;;;17.00;;
69185;SDS011;56298;49.246;9.410;2024-01-15T10:05:36;35.20;;;16.50;;
69185;SDS011;56298;49.246;9.410;2024-01-15T10:08:02;35.70;;;16.13;;
69185;SDS011;56298;49.246;9.410;2024-01-15T10:10:29;36.00;;;15.90;;
69185;SDS011;56298;49.246;9.410;2024-01-15T10:12:54;38.60;;;16.53;;
69185;SDS011;56298;49.246;9.410;2024-01-15T10:15:23;41.43;;;18.17;;
69185;SDS011;56298;49.246;9.410;2024-01-15T10:17:48;42.63;;;18.75;;
69185;SDS011;56298;49.246;9.410;2024-01-15T10:20:14;37.57;;;17.63;;
69185;SDS011;56298;49.246;9.410;2024-01-15T10:22:40;37.03;;;17.33;;
69185;SDS011;56298;49.246;9.410;2024-01-15T10:25:12;37.13;;;17.90;;
69185;SDS011;56298;49.246;9.410;2024-01-15T10:27:38;33.30;;;17.00;;
69185;SDS011;56298;49.246;9.410;2024-01-15T10:30:05;36.85;;;19.35;;
69185;SDS011;56298;49.246;9.410;2024-01-15T10:32:31;37.00;;;21.48;;
69185;SDS011;56298;49.246;9.410;2024-01-15T10:34:56;35.20;;;19.63;;
69185;SDS011;56298;49.246;9.410;2024-01-15T10:37:24;33.07;;;18.93;;
69185;SDS011;56298;49.246;9.410;2024-01-15T10:39:50;30.70;;;18.83;;
69185;SDS011;56298;49.246;9.410;2024-01-15T10:42:15;32.85;;;18.73;;
69185;SDS011;56298;49.246;9.410;2024-01-15T10:44:42;48.03;;;22.83;;
69185;SDS011;56298;49.246;9.410;2024-01-15T10:47:08;29.20;;;15.40;;
69185;SDS011;56298;49.246;9.410;2024-01-15T10:49:34;26.97;;;16.10;;
69185;SDS011;56298;49.246;9.410;2024-01-15T10:52:02;29.03;;;17.00;;
69185;SDS011;56298;49.246;9.410;2024-01-15T10:54:28;27.33;;;18.15;;
69185;SDS011;56298;49.246;9.410;2024-01-15T10:56:54;30.25;;;20.70;;
69185;SDS011;56298;49.246;9.410;2024-01-15T10:59:21;29.57;;;19.03;;
69185;SDS011;56298;49.246;9.410;2024-01-15T11:01:49;30.13;;;18.40;;
69185;SDS011;56298;49.246;9.410;2024-01-15T11:04:18;29.55;;;16.58;;
69185;SDS011;56298;49.246;9.410;2024-01-15T11:06:47;30.70;;;16.90;;
69185;SDS011;56298;49.246;9.410;2024-01-15T11:09:15;29.90;;;19.50;;
69185;SDS011;56298;49.246;9.410;2024-01-15T11:11:44;30.17;;;19.53;;
69185;SDS011;56298;49.246;9.410;2024-01-15T11:14:32;29.48;;;20.65;;
69185;SDS011;56298;49.246;9.410;2024-01-15T11:17:13;33.10;;;21.52;;
69185;SDS011;56298;49.246;9.410;2024-01-15T11:19:43;33.45;;;23.05;;
69185;SDS011;56298;49.246;9.410;2024-01-15T11:22:09;38.97;;;24.50;;
69185;SDS011;56298;49.246;9.410;2024-01-15T11:24:53;38.65;;;25.02;;
69185;SDS011;56298;49.246;9.410;2024-01-15T11:27:19;36.00;;;23.67;;
69185;SDS011;56298;49.246;9.410;2024-01-15T11:30:18;34.40;;;21.37;;
69185;SDS011;56298;49.246;9.410;2024-01-15T11:32:47;32.93;;;18.00;;
69185;SDS011;56298;49.246;9.410;2024-01-15T11:35:12;32.00;;;19.33;;
69185;SDS011;56298;49.246;9.410;2024-01-15T11:40:18;32.60;;;19.55;;
69185;SDS011;56298;49.246;9.410;2024-01-15T11:42:44;31.05;;;17.30;;
69185;SDS011;56298;49.246;9.410;2024-01-15T11:45:10;33.58;;;18.63;;
69185;SDS011;56298;49.246;9.410;2024-01-15T11:48:38;33.73;;;18.90;;
69185;SDS011;56298;49.246;9.410;2024-01-15T11:50:39;31.47;;;18.23;;
69185;SDS011;56298;49.246;9.410;2024-01-15T11:53:11;35.70;;;17.92;;
69185;SDS011;56298;49.246;9.410;2024-01-15T11:55:41;30.35;;;15.90;;
69185;SDS011;56298;49.246;9.410;2024-01-15T11:58:10;32.92;;;17.98;;
69185;SDS011;56298;49.246;9.410;2024-01-15T12:00:39;29.67;;;17.42;;
69185;SDS011;56298;49.246;9.410;2024-01-15T12:03:12;40.42;;;22.50;;
69185;SDS011;56298;49.246;9.410;2024-01-15T12:05:38;37.17;;;22.53;;
69185;SDS011;56298;49.246;9.410;2024-01-15T12:08:03;111.80;;;46.90;;
69185;SDS011;56298;49.246;9.410;2024-01-15T12:10:35;89.13;;;37.53;;
69185;SDS011;56298;49.246;9.410;2024-01-15T12:13:05;548.00;;;203.55;;
69185;SDS011;56298;49.246;9.410;2024-01-15T12:15:33;233.93;;;71.63;;
69185;SDS011;56298;49.246;9.410;2024-01-15T12:17:59;156.33;;;49.40;;
69185;SDS011;56298;49.246;9.410;2024-01-15T12:20:27;577.33;;;187.82;;
69185;SDS011;56298;49.246;9.410;2024-01-15T12:22:53;629.40;;;210.97;;
69185;SDS011;56298;49.246;9.410;2024-01-15T12:25:20;208.38;;;57.97;;
69185;SDS011;56298;49.246;9.410;2024-01-15T12:27:45;59.72;;;22.60;;
69185;SDS011;56298;49.246;9.410;2024-01-15T12:30:11;113.70;;;40.40;;
69185;SDS011;56298;49.246;9.410;2024-01-15T12:32:40;61.72;;;25.27;;
69185;SDS011;56298;49.246;9.410;2024-01-15T12:35:06;153.63;;;51.43;;
69185;SDS011;56298;49.246;9.410;2024-01-15T12:37:34;117.03;;;41.55;;
69185;SDS011;56298;49.246;9.410;2024-01-15T12:40:00;116.88;;;39.65;;
69185;SDS011;56298;49.246;9.410;2024-01-15T12:42:25;52.27;;;23.13;;
69185;SDS011;56298;49.246;9.410;2024-01-15T12:44:53;50.13;;;22.03;;
69185;SDS011;56298;49.246;9.410;2024-01-15T12:47:20;44.17;;;21.58;;
69185;SDS011;56298;49.246;9.410;2024-01-15T12:49:46;35.37;;;17.83;;
69185;SDS011;56298;49.246;9.410;2024-01-15T12:52:14;33.65;;;18.08;;
69185;SDS011;56298;49.246;9.410;2024-01-15T12:54:40;36.53;;;17.90;;
69185;SDS011;56298;49.246;9.410;2024-01-15T12:57:05;40.92;;;18.73;;
69185;SDS011;56298;49.246;9.410;2024-01-15T13:02:22;29.67;;;14.38;;
69185;SDS011;56298;49.246;9.410;2024-01-15T13:04:47;29.53;;;14.57;;
69185;SDS011;56298;49.246;9.410;2024-01-15T13:07:13;28.67;;;15.13;;
69185;SDS011;56298;49.246;9.410;2024-01-15T13:09:38;35.57;;;18.70;;
69185;SDS011;56298;49.246;9.410;2024-01-15T13:12:03;29.73;;;15.53;;
69185;SDS011;56298;49.246;9.410;2024-01-15T13:14:30;31.33;;;15.93;;
69185;SDS011;56298;49.246;9.410;2024-01-15T13:16:56;30.93;;;15.93;;
69185;SDS011;56298;49.246;9.410;2024-01-15T13:19:22;29.10;;;16.00;;
69185;SDS011;56298;49.246;9.410;2024-01-15T13:21:47;35.43;;;20.60;;
69185;SDS011;56298;49.246;9.410;2024-01-15T13:24:12;39.40;;;19.70;;
69185;SDS011;56298;49.246;9.410;2024-01-15T13:26:52;48.85;;;24.20;;
69185;SDS011;56298;49.246;9.410;2024-01-15T13:29:18;55.00;;;30.35;;
69185;SDS011;56298;49.246;9.410;2024-01-15T13:31:43;32.33;;;17.83;;
69185;SDS011;56298;49.246;9.410;2024-01-15T13:34:11;33.73;;;19.57;;
69185;SDS011;56298;49.246;9.410;2024-01-15T13:36:36;53.27;;;31.73;;
69185;SDS011;56298;49.246;9.410;2024-01-15T13:39:03;54.70;;;30.33;;
69185;SDS011;56298;49.246;9.410;2024-01-15T13:41:33;55.38;;;27.52;;
69185;SDS011;56298;49.246;9.410;2024-01-15T13:43:58;44.33;;;25.00;;
69185;SDS011;56298;49.246;9.410;2024-01-15T13:46:25;53.55;;;28.95;;
69185;SDS011;56298;49.246;9.410;2024-01-15T13:48:54;39.47;;;20.80;;
69185;SDS011;56298;49.246;9.410;2024-01-15T13:51:21;40.97;;;19.67;;
69185;SDS011;56298;49.246;9.410;2024-01-15T13:53:48;45.57;;;22.00;;
69185;SDS011;56298;49.246;9.410;2024-01-15T13:56:14;31.93;;;19.23;;
69185;SDS011;56298;49.246;9.410;2024-01-15T13:58:40;69.53;;;34.55;;
69185;SDS011;56298;49.246;9.410;2024-01-15T14:01:05;30.90;;;17.77;;
69185;SDS011;56298;49.246;9.410;2024-01-15T14:03:31;107.63;;;46.37;;
69185;SDS011;56298;49.246;9.410;2024-01-15T14:05:57;50.42;;;25.55;;
69185;SDS011;56298;49.246;9.410;2024-01-15T14:08:23;36.37;;;17.63;;
69185;SDS011;56298;49.246;9.410;2024-01-15T14:10:48;36.10;;;18.90;;
69185;SDS011;56298;49.246;9.410;2024-01-15T14:13:14;38.53;;;19.60;;
69185;SDS011;56298;49.246;9.410;2024-01-15T14:15:39;29.20;;;15.40;;
69185;SDS011;56298;49.246;9.410;2024-01-15T14:18:05;64.80;;;28.73;;
69185;SDS011;56298;49.246;9.410;2024-01-15T14:20:30;31.17;;;16.63;;